Time;durP1;ratioP1;P1;durP2;ratioP2;P2;SDS_P1;SDS_P2;PMS_P1;PMS_P2;Temp;Humidity;BMP_temperature;BMP_pressure;BME280_temperature;BME280_humidity;BME280_pressure;Samples;Min_cycle;Max_cycle;Signal;HPM_P1;HPM_P2
2022/01/24 00:00:20;;;;;;;4.78;2.97;;;;;;;3.41;100.00;102703.53;698735;28;1376;-82
2022/01/24 00:00:41;;;;;;;5.55;3.10;;;;;;;3.37;100.00;102688.66;693269;28;1261;-83
2022/01/24 00:01:04;;;;;;;5.10;2.90;;;;;;;3.36;100.00;102671.34;692613;28;2279;-83
2022/01/24 00:01:27;;;;;;;4.53;2.70;;;;;;;3.38;99.81;102702.50;687639;28;4300;-82
2022/01/24 00:01:51;;;;;;;4.45;2.88;;;;;;;3.37;100.00;102711.03;692556;28;1333;-84
2022/01/24 00:02:12;;;;;;;4.00;2.53;;;;;;;3.45;98.83;102695.94;698134;28;1135;-82
2022/01/24 00:02:32;;;;;;;4.30;2.60;;;;;;;3.38;99.72;102685.28;692960;28;1124;-83
2022/01/24 00:02:53;;;;;;;4.70;2.77;;;;;;;3.31;100.00;102697.75;696691;28;1376;-83
2022/01/24 00:03:13;;;;;;;5.05;2.80;;;;;;;3.27;100.00;102699.28;698422;28;1157;-83
2022/01/24 00:03:34;;;;;;;4.93;3.20;;;;;;;3.24;100.00;102683.59;699502;28;1194;-84
2022/01/24 00:03:58;;;;;;;4.80;3.13;;;;;;;3.44;99.18;102700.25;700137;28;1591;-83
2022/01/24 00:04:21;;;;;;;5.07;2.97;;;;;;;3.41;100.00;102675.09;693889;28;4316;-83
2022/01/24 00:04:41;;;;;;;4.88;3.17;;;;;;;3.40;100.00;102700.88;696223;28;2582;-83
2022/01/24 00:05:02;;;;;;;4.40;2.92;;;;;;;3.38;100.00;102674.94;698753;28;1244;-83
2022/01/24 00:05:25;;;;;;;4.85;3.15;;;;;;;3.32;100.00;102703.00;700707;28;1387;-83
2022/01/24 00:05:46;;;;;;;4.72;3.00;;;;;;;3.30;100.00;102689.13;689332;28;1569;-83
2022/01/24 00:06:10;;;;;;;5.55;3.00;;;;;;;3.33;100.00;102702.22;693401;28;1069;-84
2022/01/24 00:06:37;;;;;;;5.07;3.30;;;;;;;3.32;100.00;102687.50;691777;28;3421;-83
2022/01/24 00:06:57;;;;;;;4.90;3.13;;;;;;;3.30;100.00;102677.91;695779;28;1518;-83
2022/01/24 00:07:21;;;;;;;5.00;3.10;;;;;;;3.26;100.00;102679.41;694636;28;4360;-82
2022/01/24 00:07:41;;;;;;;4.70;3.30;;;;;;;3.21;100.00;102673.06;693711;28;970;-83
2022/01/24 00:08:03;;;;;;;4.88;3.28;;;;;;;3.18;100.00;102698.75;695330;28;1298;-83
2022/01/24 00:08:24;;;;;;;5.10;3.15;;;;;;;3.13;100.00;102667.47;690126;28;1025;-83
2022/01/24 00:08:44;;;;;;;5.43;3.33;;;;;;;3.13;100.00;102714.00;696084;28;1280;-83
2022/01/24 00:09:12;;;;;;;4.63;3.40;;;;;;;3.17;100.00;102697.88;695701;28;1179;-83
2022/01/24 00:09:38;;;;;;;4.45;3.13;;;;;;;3.14;100.00;102699.38;697036;28;1933;-84
2022/01/24 00:10:03;;;;;;;5.28;3.42;;;;;;;3.13;100.00;102695.00;692984;28;2939;-84
2022/01/24 00:10:26;;;;;;;5.20;3.20;;;;;;;3.17;100.00;102690.09;692000;28;4298;-84
2022/01/24 00:10:52;;;;;;;4.70;3.10;;;;;;;3.19;100.00;102678.16;696803;28;1057;-83
2022/01/24 00:11:17;;;;;;;5.05;3.38;;;;;;;3.31;99.98;102696.06;694264;28;1366;-83
2022/01/24 00:12:00;;;;;;;5.55;3.90;;;;;;;3.36;99.55;102693.75;694030;28;993;-81
2022/01/24 00:26:46;;;;;;;5.32;3.97;;;;;;;3.13;100.00;102689.81;703545;28;3628;-81
2022/01/24 00:27:07;;;;;;;5.90;4.15;;;;;;;3.10;100.00;102687.06;698127;28;1530;-81
2022/01/24 00:27:27;;;;;;;5.87;4.30;;;;;;;3.09;100.00;102680.09;700229;28;1028;-82
2022/01/24 00:27:48;;;;;;;5.90;3.80;;;;;;;3.06;100.00;102686.91;697543;28;1329;-82
2022/01/24 00:28:08;;;;;;;5.95;3.63;;;;;;;3.06;100.00;102679.16;696159;28;4554;-81
2022/01/24 00:28:29;;;;;;;5.90;3.90;;;;;;;3.04;100.00;102682.44;697153;28;864;-82
2022/01/24 00:28:49;;;;;;;5.28;3.88;;;;;;;3.00;100.00;102673.59;695122;28;1470;-82
2022/01/24 00:29:10;;;;;;;5.25;3.80;;;;;;;2.99;100.00;102678.69;696982;28;1476;-82
2022/01/24 00:29:31;;;;;;;5.47;3.70;;;;;;;2.99;100.00;102673.50;695963;28;2471;-82
2022/01/24 00:29:51;;;;;;;5.13;3.60;;;;;;;3.24;100.00;102704.28;690991;28;1405;-82
2022/01/24 00:30:14;;;;;;;5.40;3.80;;;;;;;3.31;100.00;102698.66;694204;28;1201;-82
2022/01/24 00:30:42;;;;;;;5.25;3.55;;;;;;;3.27;100.00;102676.03;694410;28;1197;-82
2022/01/24 00:31:15;;;;;;;;;;;;;;;;;;;;;
2022/01/24 00:31:42;;;;;;;5.18;3.70;;;;;;;3.17;100.00;102692.69;699190;28;4723;-81
2022/01/24 00:32:03;;;;;;;5.10;3.70;;;;;;;3.18;100.00;102698.75;696751;28;1533;-81
2022/01/24 00:32:27;;;;;;;5.15;3.83;;;;;;;3.28;100.00;102693.31;697402;28;1430;-81
2022/01/24 00:32:48;;;;;;;6.20;3.90;;;;;;;3.26;100.00;102679.41;692903;28;2364;-82
2022/01/24 00:33:08;;;;;;;6.00;3.83;;;;;;;3.22;100.00;102678.31;694018;28;1506;-81
2022/01/24 00:33:29;;;;;;;5.20;3.77;;;;;;;3.21;100.00;102670.47;691268;28;1137;-82
2022/01/24 00:33:49;;;;;;;4.82;3.58;;;;;;;3.21;100.00;102680.81;694724;28;1308;-82
2022/01/24 00:34:12;;;;;;;5.63;3.80;;;;;;;3.17;100.00;102692.69;690517;28;4513;-81
2022/01/24 00:34:33;;;;;;;5.10;3.75;;;;;;;3.17;100.00;102704.72;693105;28;1362;-82
2022/01/24 00:34:53;;;;;;;5.55;3.95;;;;;;;3.19;100.00;102685.03;699259;28;1926;-82
2022/01/24 00:35:14;;;;;;;5.90;4.00;;;;;;;3.17;100.00;102684.03;696674;28;1230;-82
2022/01/24 00:35:35;;;;;;;5.22;3.90;;;;;;;3.17;100.00;102671.09;699817;28;3978;-81
2022/01/24 00:35:55;;;;;;;4.90;3.70;;;;;;;3.14;100.00;102694.19;700405;28;1098;-82
2022/01/24 00:36:19;;;;;;;5.20;3.80;;;;;;;3.13;100.00;102697.56;696326;28;1253;-81
2022/01/24 00:36:40;;;;;;;5.53;3.90;;;;;;;3.10;100.00;102671.56;692812;28;1362;-82
2022/01/24 00:37:01;;;;;;;5.88;4.10;;;;;;;3.14;100.00;102699.38;690210;28;1241;-82
2022/01/24 00:37:27;;;;;;;5.68;4.00;;;;;;;3.12;100.00;102690.66;695488;28;4360;-82
2022/01/24 00:37:47;;;;;;;5.55;3.72;;;;;;;3.10;100.00;102687.06;698504;28;1440;-82
2022/01/24 00:38:08;;;;;;;5.10;3.60;;;;;;;3.06;100.00;102671.38;700860;28;1194;-82
2022/01/24 00:38:32;;;;;;;5.85;3.90;;;;;;;3.10;100.00;102692.22;701844;28;1083;-82
2022/01/24 00:38:52;;;;;;;5.40;3.90;;;;;;;3.17;100.00;102676.28;698930;28;1351;-81
2022/01/24 00:39:13;;;;;;;5.28;4.00;;;;;;;3.20;100.00;102712.66;697079;28;3810;-82
2022/01/24 00:39:38;;;;;;;5.07;3.80;;;;;;;3.20;100.00;102668.72;698972;28;1585;-83
2022/01/24 00:40:00;;;;;;;5.13;3.80;;;;;;;3.43;100.00;102700.16;699872;28;1153;-81
2022/01/24 00:40:20;;;;;;;5.07;3.67;;;;;;;3.40;100.00;102699.16;696050;28;4336;-82
2022/01/24 00:40:44;;;;;;;5.00;3.70;;;;;;;3.39;100.00;102670.63;696925;28;2518;-82
2022/01/24 00:41:12;;;;;;;5.13;3.72;;;;;;;3.33;100.00;102668.59;693277;28;2295;-82
2022/01/24 00:41:49;;;;;;;5.45;3.90;;;;;;;3.28;100.00;102693.31;690218;28;1464;-81
2022/01/24 00:42:28;;;;;;;6.10;3.88;;;;;;;3.21;100.00;102665.31;692174;28;1167;-84
2022/01/24 00:42:56;;;;;;;5.53;3.83;;;;;;;3.19;100.00;102691.06;694242;28;986;-82
2022/01/24 00:44:15;;;;;;;5.63;3.83;;;;;;;3.21;100.00;102666.22;699197;28;1549;-81
2022/01/24 00:46:08;;;;;;;6.10;3.70;;;;;;;3.21;100.00;102667.91;695369;28;1484;-81
2022/01/24 00:46:42;;;;;;;4.90;3.55;;;;;;;3.14;100.00;102663.19;692146;28;5005;-81
2022/01/24 00:47:08;;;;;;;5.97;3.83;;;;;;;3.13;100.00;102672.63;695715;28;1326;-82
2022/01/24 00:47:45;;;;;;;5.53;3.78;;;;;;;3.11;100.00;102699.19;693163;28;1654;-81
2022/01/24 00:48:50;;;;;;;5.47;3.97;;;;;;;3.08;100.00;102696.44;694920;28;1340;-82
2022/01/24 00:53:10;;;;;;;5.90;3.88;;;;;;;3.03;100.00;102675.47;691021;28;2411;-82
2022/01/24 00:53:11;;;;;;;5.10;3.76;;;;;;;3.10;100.00;102666.38;690964;28;4814;-81
2022/01/24 00:54:51;;;;;;;5.32;3.58;;;;;;;3.30;100.00;102667.56;696632;28;3158;-81
2022/01/24 00:55:13;;;;;;;5.60;3.80;;;;;;;3.41;99.83;102658.72;696096;28;4360;-82
2022/01/24 00:55:37;;;;;;;5.22;3.67;;;;;;;3.38;100.00;102679.22;694798;28;1326;-83
2022/01/24 00:55:58;;;;;;;5.15;3.70;;;;;;;3.35;100.00;102667.00;691283;28;1263;-81
2022/01/24 00:56:19;;;;;;;4.95;3.50;;;;;;;3.32;100.00;102668.50;694821;28;1211;-81
2022/01/24 00:56:42;;;;;;;5.40;3.55;;;;;;;3.32;100.00;102663.34;701275;28;1768;-82
2022/01/24 00:57:03;;;;;;;5.57;3.75;;;;;;;3.29;100.00;102673.53;701248;28;1554;-82
2022/01/24 00:57:24;;;;;;;5.90;3.80;;;;;;;3.27;100.00;102704.47;696238;28;1902;-81
2022/01/24 00:57:45;;;;;;;5.22;3.50;;;;;;;3.36;100.00;102694.63;690013;28;2070;-82
2022/01/24 00:58:05;;;;;;;5.10;3.40;;;;;;;3.48;100.00;102660.84;693778;28;1323;-81
2022/01/24 00:58:26;;;;;;;5.18;3.40;;;;;;;3.45;100.00;102685.59;693742;28;4366;-81
2022/01/24 00:58:46;;;;;;;5.40;3.72;;;;;;;3.52;99.58;102670.53;697327;28;1671;-81
2022/01/24 00:59:07;;;;;;;5.90;3.70;;;;;;;3.54;99.42;102709.41;696774;28;1653;-81
2022/01/24 00:59:28;;;;;;;5.87;3.67;;;;;;;3.49;100.00;102661.72;692820;28;1199;-81
2022/01/24 00:59:49;;;;;;;6.40;3.78;;;;;;;3.40;100.00;102657.78;688183;28;1580;-82
2022/01/24 01:00:10;;;;;;;5.45;3.90;;;;;;;3.39;100.00;102661.22;693980;28;1408;-81
2022/01/24 01:00:31;;;;;;;5.32;3.50;;;;;;;3.35;100.00;102669.59;693962;28;3763;-81
2022/01/24 01:00:52;;;;;;;5.05;3.53;;;;;;;3.37;100.00;102672.25;696494;28;3953;-81
2022/01/24 01:01:12;;;;;;;4.83;3.50;;;;;;;3.54;99.72;102670.63;696167;28;4376;-81
2022/01/24 01:01:33;;;;;;;5.00;3.60;;;;;;;3.47;100.00;102659.03;695468;28;1406;-81
2022/01/24 01:01:54;;;;;;;5.28;3.60;;;;;;;3.51;100.00;102683.41;691501;28;1065;-81
2022/01/24 01:02:19;;;;;;;5.82;3.67;;;;;;;3.44;100.00;102692.50;692969;28;878;-81
2022/01/24 01:02:41;;;;;;;5.32;3.60;;;;;;;3.39;100.00;102676.72;694779;28;1354;-81
2022/01/24 01:03:05;;;;;;;5.72;3.75;;;;;;;3.43;100.00;102664.84;696516;28;1378;-82
2022/01/24 01:03:25;;;;;;;4.90;3.40;;;;;;;3.61;99.65;102675.34;695863;28;3893;-81
2022/01/24 01:03:49;;;;;;;5.00;3.58;;;;;;;3.56;99.36;102680.25;695776;28;1628;-81
2022/01/24 01:04:09;;;;;;;5.68;3.65;;;;;;;3.48;100.00;102672.88;692946;28;4355;-81
2022/01/24 01:04:45;;;;;;;4.93;3.28;;;;;;;3.41;100.00;102689.75;690578;28;1662;-81
2022/01/24 01:06:07;;;;;;;5.30;3.58;;;;;;;3.27;100.00;102695.78;698328;28;1287;-81
2022/01/24 01:06:28;;;;;;;5.18;3.58;;;;;;;3.29;100.00;102683.84;695930;28;1510;-81
2022/01/24 01:06:49;;;;;;;4.95;3.53;;;;;;;3.34;100.00;102682.44;693523;28;4013;-81
2022/01/24 01:07:10;;;;;;;5.10;3.70;;;;;;;3.33;100.00;102665.13;699248;28;4352;-81
2022/01/24 01:07:39;;;;;;;5.95;3.90;;;;;;;3.45;100.00;102680.44;702212;28;1106;-81
2022/01/24 01:18:23;;;;;;;4.82;3.30;;;;;;;3.43;100.00;102670.00;700271;28;1038;-81
2022/01/24 01:18:44;;;;;;;4.93;3.40;;;;;;;3.37;100.00;102673.16;695417;28;1368;-81
2022/01/24 01:19:05;;;;;;;5.90;3.67;;;;;;;3.33;99.44;102660.84;690034;28;1150;-81
2022/01/24 01:19:26;;;;;;;4.75;3.20;;;;;;;3.31;100.00;102661.56;689923;28;4322;-81
2022/01/24 01:19:46;;;;;;;4.77;3.37;;;;;;;3.29;100.00;102663.19;693154;28;1190;-83
2022/01/24 01:20:08;;;;;;;5.17;3.50;;;;;;;3.26;100.00;102669.06;694327;28;1758;-81
2022/01/24 01:20:34;;;;;;;4.97;3.30;;;;;;;3.26;100.00;102669.06;696067;28;4120;-81
2022/01/24 01:21:14;;;;;;;5.63;3.30;;;;;;;3.22;100.00;102661.94;694720;28;1388;-81
2022/01/24 01:21:35;;;;;;;5.24;3.40;;;;;;;3.20;100.00;102653.22;692496;28;961;-82
2022/01/24 01:21:55;;;;;;;5.40;3.37;;;;;;;3.28;100.00;102659.72;692713;28;1513;-81
2022/01/24 01:22:18;;;;;;;4.68;2.95;;;;;;;3.35;100.00;102661.84;684784;28;4303;-81
2022/01/24 01:22:38;;;;;;;5.37;3.40;;;;;;;3.35;100.00;102664.44;697371;28;1438;-81
2022/01/24 01:22:59;;;;;;;4.78;3.20;;;;;;;3.33;100.00;102659.97;697793;28;1174;-81
2022/01/24 01:23:19;;;;;;;4.50;3.30;;;;;;;3.37;100.00;102659.34;693294;28;2621;-81
2022/01/24 01:23:48;;;;;;;5.07;3.40;;;;;;;3.35;100.00;102660.94;694099;28;1621;-81
2022/01/24 01:24:08;;;;;;;5.20;3.42;;;;;;;3.33;100.00;102654.78;692608;28;1078;-82
2022/01/24 01:24:32;;;;;;;5.47;3.33;;;;;;;3.43;100.00;102657.09;694501;28;1348;-81
2022/01/24 01:24:54;;;;;;;4.70;3.33;;;;;;;3.49;99.59;102660.03;697368;28;1021;-81
2022/01/24 01:25:17;;;;;;;4.82;3.33;;;;;;;3.51;100.00;102662.69;699482;28;4532;-80
2022/01/24 01:25:40;;;;;;;5.35;3.38;;;;;;;3.51;100.00;102650.66;696028;28;1201;-81
2022/01/24 01:26:05;;;;;;;5.22;3.15;;;;;;;3.51;100.00;102652.34;693735;28;2539;-81
2022/01/24 01:26:36;;;;;;;4.85;3.05;;;;;;;3.49;100.00;102672.06;694097;28;2611;-81
2022/01/24 01:27:04;;;;;;;4.85;3.15;;;;;;;3.39;100.00;102656.03;696140;28;1284;-81
2022/01/24 01:27:34;;;;;;;4.60;3.10;;;;;;;3.40;100.00;102673.31;695912;28;1279;-82
2022/01/24 01:27:56;;;;;;;5.00;3.10;;;;;;;3.38;100.00;102676.66;702336;28;1306;-81
2022/01/24 01:28:18;;;;;;;4.63;2.90;;;;;;;3.37;100.00;102647.28;696252;28;4390;-81
2022/01/24 01:28:42;;;;;;;4.45;2.90;;;;;;;3.34;100.00;102647.13;695625;28;1749;-81
2022/01/24 01:29:15;;;;;;;5.03;3.17;;;;;;;3.31;100.00;102649.53;694259;28;2505;-82
2022/01/24 01:30:01;;;;;;;5.10;3.30;;;;;;;3.46;100.00;102646.03;699124;28;1453;-81
2022/01/24 01:30:33;;;;;;;5.32;3.20;;;;;;;3.52;100.00;102642.09;696408;28;1223;-81
2022/01/24 01:30:58;;;;;;;5.38;3.30;;;;;;;3.51;100.00;102673.03;693618;28;920;-81
2022/01/24 01:31:44;;;;;;;5.43;3.03;;;;;;;3.63;98.71;102650.47;692064;28;4409;-82
2022/01/24 01:32:25;;;;;;;4.85;3.22;;;;;;;3.54;99.79;102671.50;692482;28;1514;-80
2022/01/24 01:33:02;;;;;;;4.80;3.28;;;;;;;3.68;98.68;102658.47;695943;28;1357;-82
2022/01/24 01:33:37;;;;;;;4.63;3.00;;;;;;;3.80;97.50;102671.19;699116;28;1002;-81
2022/01/24 01:36:33;;;;;;;4.75;3.30;;;;;;;3.60;99.49;102657.16;698039;28;1325;-82
2022/01/24 01:37:51;;;;;;;5.63;3.53;;;;;;;3.52;99.89;102673.13;684476;28;5279;-81
2022/01/24 01:52:17;;;;;;;5.13;3.38;;;;;;;3.53;100.00;102685.25;695145;28;4425;-81
2022/01/24 01:52:39;;;;;;;4.70;3.40;;;;;;;3.29;100.00;102676.97;697939;28;4280;-81
2022/01/24 01:54:53;;;;;;;4.90;3.30;;;;;;;3.28;100.00;102674.31;696582;28;2123;-81
2022/01/24 01:55:36;;;;;;;5.80;3.53;;;;;;;3.28;100.00;102687.25;692923;28;4324;-81
2022/01/24 01:55:56;;;;;;;4.55;3.05;;;;;;;3.38;100.00;102664.59;691987;28;1223;-81
2022/01/24 01:56:17;;;;;;;4.60;3.00;;;;;;;3.44;100.00;102666.63;691190;28;1106;-81
2022/01/24 01:56:37;;;;;;;5.27;3.10;;;;;;;3.37;100.00;102660.22;695491;28;1343;-81
2022/01/24 01:57:00;;;;;;;5.03;3.20;;;;;;;3.36;100.00;102678.22;693506;28;1334;-82
2022/01/24 01:57:22;;;;;;;4.90;3.10;;;;;;;3.32;100.00;102669.41;696675;28;2995;-81
2022/01/24 01:57:43;;;;;;;4.63;2.97;;;;;;;3.28;100.00;102661.38;692103;28;1415;-81
2022/01/24 01:58:08;;;;;;;4.95;3.30;;;;;;;3.27;100.00;102690.63;695284;28;1150;-81
2022/01/24 01:58:29;;;;;;;5.57;3.35;;;;;;;3.23;100.00;102679.22;697120;28;4392;-81
2022/01/24 01:58:50;;;;;;;5.10;3.28;;;;;;;3.24;100.00;102656.06;700715;28;1460;-81
2022/01/24 01:59:10;;;;;;;4.83;3.23;;;;;;;3.28;100.00;102661.38;699039;28;1262;-81
2022/01/24 01:59:31;;;;;;;4.88;3.45;;;;;;;3.31;100.00;102674.47;697503;28;1348;-81
2022/01/24 01:59:51;;;;;;;5.28;3.60;;;;;;;3.29;100.00;102669.22;689820;28;1393;-81
2022/01/24 02:00:13;;;;;;;5.63;3.23;;;;;;;3.47;100.00;102650.41;691309;28;3752;-81
2022/01/24 02:00:36;;;;;;;5.72;3.00;;;;;;;3.55;100.00;102693.09;691490;28;1347;-81
2022/01/24 02:01:02;;;;;;;5.10;3.00;;;;;;;3.66;99.99;102647.16;689962;28;1270;-81
2022/01/24 02:01:22;;;;;;;5.45;3.00;;;;;;;3.61;100.00;102667.56;692637;28;4280;-82
2022/01/24 02:01:43;;;;;;;5.93;3.20;;;;;;;3.56;100.00;102656.97;697244;28;1933;-81
2022/01/24 02:02:04;;;;;;;5.18;3.00;;;;;;;3.57;100.00;102645.84;693293;28;1231;-81
2022/01/24 02:02:24;;;;;;;4.83;3.17;;;;;;;3.56;100.00;102684.56;692699;28;1471;-82
2022/01/24 02:02:47;;;;;;;4.55;3.03;;;;;;;3.48;100.00;102659.94;689031;28;3725;-81
2022/01/24 02:03:08;;;;;;;4.47;2.92;;;;;;;3.45;100.00;102641.66;689451;28;3698;-82
2022/01/24 02:03:31;;;;;;;5.40;3.38;;;;;;;3.46;100.00;102687.41;691032;28;1500;-82
2022/01/24 02:03:54;;;;;;;4.80;3.10;;;;;;;3.40;100.00;102678.47;694171;28;896;-81
2022/01/24 02:04:15;;;;;;;4.40;3.10;;;;;;;3.44;100.00;102671.81;698845;28;4304;-81
2022/01/24 02:04:37;;;;;;;4.72;3.00;;;;;;;3.47;100.00;102668.50;698247;28;939;-81
2022/01/24 02:04:58;;;;;;;4.47;2.90;;;;;;;3.47;100.00;102655.56;697269;28;1492;-81
2022/01/24 02:05:18;;;;;;;5.30;3.20;;;;;;;3.50;100.00;102681.59;696093;28;1132;-82
2022/01/24 02:05:39;;;;;;;4.32;2.90;;;;;;;3.56;100.00;102658.69;693254;28;1996;-81
2022/01/24 02:06:02;;;;;;;4.38;2.90;;;;;;;3.62;99.58;102678.81;689774;28;1238;-82
2022/01/24 02:06:24;;;;;;;4.72;2.88;;;;;;;3.61;100.00;102671.88;693484;28;1424;-82
2022/01/24 02:06:45;;;;;;;4.70;2.88;;;;;;;3.70;99.21;102652.56;695206;28;1622;-81
2022/01/24 02:07:10;;;;;;;4.60;2.90;;;;;;;3.70;99.21;102686.19;689015;28;1199;-82
2022/01/24 02:07:31;;;;;;;4.63;2.88;;;;;;;3.77;98.72;102686.53;696207;28;4759;-81
2022/01/24 02:07:54;;;;;;;4.30;2.80;;;;;;;3.67;99.42;102661.84;693216;28;1134;-82
2022/01/24 02:08:16;;;;;;;4.47;2.88;;;;;;;3.61;100.00;102664.09;688730;28;1325;-81
2022/01/24 02:08:38;;;;;;;4.22;2.60;;;;;;;3.51;100.00;102684.28;691029;28;3522;-81
2022/01/24 02:09:05;;;;;;;4.47;2.78;;;;;;;3.63;99.52;102655.63;692681;28;1733;-82
2022/01/24 02:09:31;;;;;;;4.65;2.65;;;;;;;3.56;100.00;102671.63;694681;28;1174;-81
2022/01/24 02:09:54;;;;;;;5.03;3.10;;;;;;;3.58;100.00;102688.09;690255;28;1490;-82
2022/01/24 02:10:16;;;;;;;4.28;2.63;;;;;;;3.54;100.00;102644.75;694320;28;4342;-82
2022/01/24 02:10:39;;;;;;;4.25;2.70;;;;;;;3.51;100.00;102680.81;694509;28;1349;-82
2022/01/24 02:11:00;;;;;;;4.00;2.60;;;;;;;3.44;100.00;102686.44;696480;28;1765;-82
2022/01/24 02:11:23;;;;;;;4.80;2.75;;;;;;;3.40;100.00;102678.47;696481;28;3652;-81
2022/01/24 02:11:48;;;;;;;4.38;2.70;;;;;;;3.36;100.00;102673.94;696561;28;3760;-81
2022/01/24 02:12:10;;;;;;;4.10;2.70;;;;;;;3.34;100.00;102679.84;697282;28;1226;-81
2022/01/24 02:12:31;;;;;;;4.60;2.83;;;;;;;3.36;100.00;102658.44;696951;28;1394;-81
2022/01/24 02:12:54;;;;;;;4.60;2.72;;;;;;;3.37;100.00;102667.97;699175;28;1535;-82
2022/01/24 02:13:15;;;;;;;4.40;2.95;;;;;;;3.35;100.00;102656.66;697078;28;4498;-82
2022/01/24 02:13:35;;;;;;;4.40;2.85;;;;;;;3.33;100.00;102681.53;695296;28;1273;-82
2022/01/24 02:14:00;;;;;;;4.40;3.08;;;;;;;3.30;100.00;102670.13;694678;28;1308;-81
2022/01/24 02:14:25;;;;;;;4.60;3.00;;;;;;;3.27;100.00;102688.03;693357;28;2172;-83
2022/01/24 02:14:55;;;;;;;5.95;3.08;;;;;;;3.28;100.00;102646.78;692917;28;1180;-81
2022/01/24 02:15:23;;;;;;;4.18;2.90;;;;;;;3.24;100.00;102642.25;692552;28;1204;-81
2022/01/24 02:16:00;;;;;;;5.20;2.80;;;;;;;3.47;100.00;102666.81;695555;28;1285;-82
2022/01/24 02:16:36;;;;;;;4.45;2.88;;;;;;;3.50;100.00;102647.97;692056;28;4306;-81
2022/01/24 02:17:06;;;;;;;4.25;2.70;;;;;;;3.41;100.00;102684.56;696249;28;1918;-82
2022/01/24 02:17:40;;;;;;;4.10;2.45;;;;;;;3.40;100.00;102647.47;694132;28;2180;-81
2022/01/24 02:18:49;;;;;;;4.07;2.60;;;;;;;3.54;100.00;102671.50;689004;28;1274;-81
2022/01/24 02:20:10;;;;;;;5.55;2.75;;;;;;;3.44;100.00;102639.91;696602;28;1116;-81
2022/01/24 02:22:07;;;;;;;3.88;2.58;;;;;;;3.44;100.00;102638.19;697634;28;1353;-81
2022/01/24 02:22:51;;;;;;;3.87;2.40;;;;;;;3.54;100.00;102649.94;696120;28;2764;-81
2022/01/24 02:23:46;;;;;;;4.20;2.60;;;;;;;3.43;100.00;102636.41;700703;28;977;-81
2022/01/24 02:24:09;;;;;;;3.75;2.40;;;;;;;3.52;100.00;102656.75;699601;28;1413;-82
2022/01/24 02:24:39;;;;;;;3.90;2.30;;;;;;;3.56;100.00;102649.22;698790;28;898;-82
2022/01/24 02:25:06;;;;;;;4.78;2.50;;;;;;;3.60;99.75;102660.66;696413;28;1064;-82
2022/01/24 02:25:30;;;;;;;3.72;2.30;;;;;;;3.57;100.00;102661.34;694602;28;4430;-81
2022/01/24 02:25:55;;;;;;;3.33;2.20;;;;;;;3.53;100.00;102638.72;693430;28;2885;-81
2022/01/24 02:26:20;;;;;;;3.55;2.25;;;;;;;3.53;100.00;102648.16;692788;28;1402;-82
2022/01/24 02:26:41;;;;;;;3.70;2.35;;;;;;;3.52;100.00;102636.03;692271;28;1178;-82
2022/01/24 02:27:06;;;;;;;4.03;2.40;;;;;;;3.50;100.00;102660.91;699626;28;1263;-82
2022/01/24 02:27:41;;;;;;;4.32;2.40;;;;;;;3.46;100.00;102671.88;700177;28;1282;-82
2022/01/24 02:28:03;;;;;;;4.03;2.60;;;;;;;3.37;100.00;102644.69;697107;28;1320;-82
2022/01/24 02:28:26;;;;;;;4.25;2.35;;;;;;;3.35;100.00;102638.56;697726;28;4302;-81
2022/01/24 02:29:22;;;;;;;4.38;2.60;;;;;;;3.32;100.00;102661.63;696787;28;1395;-82
2022/01/24 02:30:07;;;;;;;4.70;2.40;;;;;;;3.26;100.00;102663.00;699192;28;1044;-82
2022/01/24 02:31:19;;;;;;;3.70;2.35;;;;;;;3.26;100.00;102632.88;701490;28;1489;-81
2022/01/24 02:31:46;;;;;;;4.57;2.50;;;;;;;3.24;100.00;102632.78;701704;28;4797;-82
2022/01/24 02:32:07;;;;;;;4.03;2.42;;;;;;;3.23;100.00;102635.28;702505;28;1458;-82
2022/01/24 02:32:27;;;;;;;4.13;2.60;;;;;;;3.25;100.00;102638.84;697863;28;1012;-82
2022/01/24 02:32:48;;;;;;;3.70;2.30;;;;;;;3.27;100.00;102660.50;697211;28;1163;-82
2022/01/24 02:33:10;;;;;;;3.90;2.20;;;;;;;3.27;100.00;102663.09;694935;28;1418;-81
2022/01/24 02:33:31;;;;;;;3.67;2.20;;;;;;;3.27;100.00;102652.75;693532;28;919;-82
2022/01/24 02:33:52;;;;;;;4.18;2.40;;;;;;;3.28;100.00;102633.88;695983;28;1350;-82
2022/01/24 02:34:35;;;;;;;4.63;2.38;;;;;;;3.55;100.00;102624.16;691190;28;4559;-83
2022/01/24 02:34:56;;;;;;;3.78;2.30;;;;;;;3.61;100.00;102633.94;693906;28;1393;-82
2022/01/24 02:35:16;;;;;;;4.00;2.20;;;;;;;3.55;100.00;102650.03;693374;28;1308;-81
2022/01/24 02:35:37;;;;;;;3.95;2.25;;;;;;;3.51;100.00;102629.09;697248;28;1235;-81
2022/01/24 02:35:58;;;;;;;3.78;2.35;;;;;;;3.47;100.00;102627.13;697801;28;1341;-81
2022/01/24 02:36:24;;;;;;;3.60;2.27;;;;;;;3.46;100.00;102657.28;696976;28;1286;-81
2022/01/24 02:36:45;;;;;;;3.63;2.10;;;;;;;3.45;100.00;102657.16;698086;28;3033;-81
2022/01/24 02:37:09;;;;;;;4.47;2.60;;;;;;;3.46;100.00;102648.63;697467;28;3349;-82
2022/01/24 02:37:30;;;;;;;3.72;2.30;;;;;;;3.48;100.00;102644.44;692947;28;4908;-81
2022/01/24 02:37:50;;;;;;;3.70;2.30;;;;;;;3.46;100.00;102656.38;694285;28;1298;-82
2022/01/24 02:38:42;;;;;;;4.00;2.30;;;;;;;3.45;100.00;102623.56;693285;28;1105;-82
2022/01/24 02:39:18;;;;;;;3.63;2.22;;;;;;;3.40;100.00;102625.88;695137;28;1407;-81
2022/01/24 02:40:20;;;;;;;4.35;2.20;;;;;;;3.27;100.00;102637.25;688681;28;4325;-84
2022/01/24 02:45:58;;;;;;;3.75;2.20;;;;;;;3.28;100.00;102623.53;698927;28;1399;-81
2022/01/24 02:48:41;;;;;;;3.63;2.00;;;;;;;3.66;100.00;102619.59;696849;28;1667;-82
2022/01/24 02:49:07;;;;;;;3.75;2.08;;;;;;;3.68;99.75;102618.00;696138;28;1360;-81
2022/01/24 02:49:35;;;;;;;3.75;2.10;;;;;;;3.67;99.89;102605.84;692464;28;4339;-81
2022/01/24 02:49:55;;;;;;;3.80;2.15;;;;;;;3.75;99.87;102601.06;689742;28;860;-81
2022/01/24 02:50:32;;;;;;;3.60;2.23;;;;;;;3.66;100.00;102606.66;696410;28;1222;-80
2022/01/24 02:52:07;;;;;;;3.75;2.20;;;;;;;3.59;100.00;102627.81;698735;28;1338;-81
2022/01/24 02:52:28;;;;;;;3.85;2.20;;;;;;;3.56;100.00;102619.91;698351;28;4275;-81
2022/01/24 02:52:51;;;;;;;4.30;2.20;;;;;;;3.56;100.00;102640.59;695615;28;1324;-81
2022/01/24 02:53:12;;;;;;;3.67;2.03;;;;;;;3.64;100.00;102626.38;693203;28;1286;-81
2022/01/24 02:53:35;;;;;;;4.13;2.23;;;;;;;3.64;100.00;102613.44;695058;28;1185;-81
2022/01/24 02:53:56;;;;;;;4.30;2.30;;;;;;;3.67;100.00;102621.38;696160;28;4020;-81
2022/01/24 02:54:29;;;;;;;4.25;2.15;;;;;;;3.72;99.40;102635.47;699417;28;1551;-82
2022/01/24 02:54:54;;;;;;;3.60;2.00;;;;;;;3.74;99.29;102612.25;699445;28;1163;-81
2022/01/24 02:55:15;;;;;;;3.90;2.28;;;;;;;3.69;99.26;102634.38;695409;28;4344;-81
2022/01/24 02:55:41;;;;;;;4.97;2.22;;;;;;;3.69;99.14;102629.22;692624;28;970;-81
2022/01/24 02:56:03;;;;;;;3.17;2.00;;;;;;;3.83;98.41;102612.72;699937;28;1278;-82
2022/01/24 02:56:30;;;;;;;3.65;1.98;;;;;;;3.78;98.91;102642.66;698004;28;851;-81
2022/01/24 02:57:24;;;;;;;3.36;2.20;;;;;;;3.68;100.00;102607.63;694673;28;2476;-81
2022/01/24 02:57:57;;;;;;;3.40;2.00;;;;;;;3.54;100.00;102631.84;692959;28;1568;-81
2022/01/24 02:58:40;;;;;;;;;;;;;;;;;;;;;
2022/01/24 02:59:35;;;;;;;3.78;2.00;;;;;;;3.60;100.00;102606.31;692480;28;979;-82
2022/01/24 03:00:19;;;;;;;3.10;1.98;;;;;;;3.52;100.00;102603.31;696579;28;1366;-87
2022/01/24 03:01:11;;;;;;;;;;;;;;;;;;;;;
2022/01/24 03:02:05;;;;;;;4.18;2.10;;;;;;;3.34;100.00;102603.19;692636;28;4737;-83
2022/01/24 03:02:25;;;;;;;3.63;2.05;;;;;;;3.41;100.00;102602.69;688686;28;1446;-87
2022/01/24 03:03:07;;;;;;;3.13;1.92;;;;;;;3.41;100.00;102594.94;690933;28;2365;-87
2022/01/24 03:04:13;;;;;;;4.00;2.08;;;;;;;3.33;100.00;102593.63;690726;28;1219;-84
2022/01/24 03:04:44;;;;;;;3.67;2.17;;;;;;;3.29;100.00;102589.09;697502;28;4735;-86
2022/01/24 03:05:12;;;;;;;4.60;2.13;;;;;;;3.26;100.00;102619.94;702048;28;1035;-84
2022/01/24 03:05:43;;;;;;;3.70;2.00;;;;;;;3.24;100.00;102596.59;697679;28;1241;-85
2022/01/24 03:06:21;;;;;;;3.20;2.00;;;;;;;3.20;100.00;102601.53;695460;28;1228;-86
2022/01/24 03:06:43;;;;;;;4.10;2.10;;;;;;;3.20;100.00;102604.97;691222;28;915;-84
2022/01/24 03:07:08;;;;;;;4.07;2.10;;;;;;;3.21;100.00;102585.19;693632;28;1332;-84
2022/01/24 03:07:31;;;;;;;3.38;2.15;;;;;;;3.25;100.00;102594.88;693602;28;4667;-82
2022/01/24 03:07:53;;;;;;;3.20;2.08;;;;;;;3.26;100.00;102607.03;695564;28;1468;-85